aviador You're here:

SKCL Decoded Metar

CALI in COLOMBIA
Report Time2018-07-20 06:00:00
UTC Time2018-07-20 06:33:40
Flight Rules vfr VFR
Wind020° at 05 kt
W.Decomp.*RWY 01: 4.9 kt HW 1.2 kt RCW
W.Rank020° ranks 4
Current wind is below 020° avg. (5.5)
Visibility9999 m
Phenomena:N/A
Clouds:Few 030 Hf
Scattered 120 Hf
Expected CloudBase > 1,200 ft AGL from Temp-Dew spread
CeilingNone
Temp22°C (ISA +13)
Dew Point19°C (83% RH)
QNH1014 hPa
Density Alt4,993 ft
Elevation3,179 ft
Report Wrong Elevation
Raw Report
METAR SKCL 200600Z 02005KT 9999 FEW030 SCT120 22/19 A2994=

Extra information for SKCL:More info

Metar Taf Metar & Taf Last 4 Metars F.Rules Stats Wind Profile Meteogram Temp Stats Airport Information Weather charts Add Link Nearby VenuesMetar ALERT Operation Metar Decoded Social comments